createdAt,value
2018-08-31T00:02:54.130Z,100656.05
2018-08-31T00:06:14.741Z,100654.16
2018-08-31T00:10:27.071Z,100648.11
2018-08-31T00:12:59.640Z,100646.51
2018-08-31T00:15:32.428Z,100647.16
2018-08-31T00:18:06.549Z,100651.83
2018-08-31T00:20:40.379Z,100649.16
2018-08-31T00:23:13.621Z,100652.86
2018-08-31T00:26:18.315Z,100651.09
2018-08-31T00:29:50.528Z,100653.49
2018-08-31T00:33:19.632Z,100647.88
2018-08-31T00:37:00.365Z,100645.79
2018-08-31T00:41:00.606Z,100644.34
2018-08-31T00:44:13.368Z,100647.44
2018-08-31T00:46:46.012Z,100650.83
2018-08-31T00:49:19.219Z,100652.99
2018-08-31T00:51:52.081Z,100655.55
2018-08-31T00:54:24.863Z,100653.48
2018-08-31T00:56:57.804Z,100647.73
2018-08-31T00:59:31.916Z,100649.48
2018-08-31T01:02:05.328Z,100649.89
2018-08-31T01:04:38.049Z,100645.62
2018-08-31T01:07:11.324Z,100642.56
2018-08-31T01:09:43.904Z,100637.98
2018-08-31T01:12:16.875Z,100638.14
2018-08-31T01:14:49.403Z,100632.87
2018-08-31T01:17:22.092Z,100636.58
2018-08-31T01:19:54.836Z,100636.70
2018-08-31T01:22:28.440Z,100636.09
2018-08-31T01:25:00.923Z,100638.14
2018-08-31T01:27:33.784Z,100637.05
2018-08-31T01:30:08.454Z,100635.70
2018-08-31T01:32:41.248Z,100634.71
2018-08-31T01:35:15.344Z,100638.41
2018-08-31T01:37:47.959Z,100633.59
2018-08-31T01:40:20.508Z,100638.23
2018-08-31T01:42:53.544Z,100632.55
2018-08-31T01:45:26.016Z,100635.98
2018-08-31T01:47:58.677Z,100629.00
2018-08-31T01:50:31.373Z,100632.21
2018-08-31T01:53:03.972Z,100635.05
2018-08-31T01:55:36.396Z,100633.48
2018-08-31T01:58:09.268Z,100632.48
2018-08-31T02:00:42.209Z,100637.47
2018-08-31T02:03:14.722Z,100635.62
2018-08-31T02:05:47.916Z,100638.62
2018-08-31T02:08:20.538Z,100637.14
2018-08-31T02:10:53.331Z,100639.80
2018-08-31T02:13:26.533Z,100640.39
2018-08-31T02:15:59.225Z,100643.66
2018-08-31T02:18:31.956Z,100642.06
2018-08-31T02:21:04.945Z,100647.11
2018-08-31T02:23:38.431Z,100640.80
2018-08-31T02:26:11.039Z,100644.01
2018-08-31T02:28:44.002Z,100639.02
2018-08-31T02:31:16.624Z,100641.19
2018-08-31T02:33:49.152Z,100637.70
2018-08-31T02:36:21.996Z,100640.13
2018-08-31T02:38:54.536Z,100634.02
2018-08-31T02:41:27.040Z,100637.02
2018-08-31T02:44:01.221Z,100634.92
2018-08-31T02:46:33.888Z,100639.35
2018-08-31T02:49:07.142Z,100634.47
2018-08-31T02:51:40.376Z,100632.70
2018-08-31T02:54:13.014Z,100637.42
2018-08-31T02:56:45.590Z,100634.53
2018-08-31T02:59:18.401Z,100635.48
2018-08-31T03:01:50.993Z,100633.04
2018-08-31T03:04:23.785Z,100630.70
2018-08-31T03:06:57.677Z,100637.69
2018-08-31T03:09:31.080Z,100639.75
2018-08-31T03:12:03.717Z,100638.08
2018-08-31T03:14:36.700Z,100634.92
2018-08-31T03:17:09.422Z,100634.92
2018-08-31T03:19:41.893Z,100638.17
2018-08-31T03:22:17.729Z,100626.77
2018-08-31T03:24:50.295Z,100628.42
2018-08-31T03:27:23.145Z,100629.78
2018-08-31T03:29:57.876Z,100627.73
2018-08-31T03:32:31.164Z,100627.83
2018-08-31T03:35:03.897Z,100629.48
2018-08-31T03:37:38.767Z,100630.38
2018-08-31T03:40:11.319Z,100627.05
2018-08-31T03:42:43.856Z,100622.10
2018-08-31T03:45:16.701Z,100622.23
2018-08-31T03:47:49.377Z,100630.22
2018-08-31T03:50:22.668Z,100628.15
2018-08-31T03:52:55.412Z,100631.04
2018-08-31T03:55:29.145Z,100629.53
2018-08-31T03:58:01.657Z,100629.30
2018-08-31T04:00:34.712Z,100630.03
2018-08-31T04:03:07.156Z,100632.25
2018-08-31T04:05:39.794Z,100631.36
2018-08-31T04:08:13.481Z,100633.13
2018-08-31T04:10:46.463Z,100633.30
2018-08-31T04:13:19.606Z,100631.77
2018-08-31T04:15:52.868Z,100630.62
2018-08-31T04:18:25.536Z,100631.41
2018-08-31T04:20:58.105Z,100629.55
2018-08-31T04:23:30.871Z,100634.33
2018-08-31T04:26:04.889Z,100636.48
2018-08-31T04:28:38.075Z,100634.09
2018-08-31T04:31:10.842Z,100636.86
2018-08-31T04:33:43.359Z,100635.17
2018-08-31T04:36:15.961Z,100638.15
2018-08-31T04:38:51.012Z,100641.50
2018-08-31T04:41:23.659Z,100638.97
2018-08-31T04:43:56.173Z,100639.08
2018-08-31T04:46:32.989Z,100640.94
2018-08-31T04:49:05.927Z,100637.60
2018-08-31T04:51:38.452Z,100640.22
2018-08-31T04:54:11.356Z,100639.59
2018-08-31T04:56:43.908Z,100639.34
2018-08-31T04:59:17.405Z,100643.27
2018-08-31T05:01:51.238Z,100644.11
2018-08-31T05:04:24.835Z,100643.67
2018-08-31T05:06:57.466Z,100645.77
2018-08-31T05:09:31.975Z,100643.34
2018-08-31T05:12:04.817Z,100640.99
2018-08-31T05:14:37.620Z,100645.98
2018-08-31T05:17:10.506Z,100646.27
2018-08-31T05:19:43.228Z,100645.66
2018-08-31T05:22:16.785Z,100646.86
2018-08-31T05:24:50.757Z,100647.13
2018-08-31T05:27:23.816Z,100649.28
2018-08-31T05:29:57.405Z,100653.55
2018-08-31T05:32:32.210Z,100654.66
2018-08-31T05:35:05.989Z,100657.58
2018-08-31T05:37:40.313Z,100658.22
2018-08-31T05:40:13.260Z,100659.77
2018-08-31T05:42:47.688Z,100662.02
2018-08-31T05:45:20.293Z,100664.30
2018-08-31T05:47:53.099Z,100666.81
2018-08-31T05:50:26.095Z,100668.05
2018-08-31T05:52:58.589Z,100670.03
2018-08-31T05:55:33.284Z,100669.02
2018-08-31T05:58:06.848Z,100671.20
2018-08-31T06:00:39.709Z,100672.38
2018-08-31T06:03:14.464Z,100667.22
2018-08-31T06:05:47.296Z,100674.62
2018-08-31T06:08:20.076Z,100680.19
2018-08-31T06:10:57.634Z,100682.68
2018-08-31T06:13:30.404Z,100688.17
2018-08-31T06:16:02.852Z,100692.17
2018-08-31T06:18:35.688Z,100694.58
2018-08-31T06:21:09.383Z,100692.95
2018-08-31T06:23:42.326Z,100695.42
2018-08-31T06:26:16.484Z,100692.58
2018-08-31T06:28:50.708Z,100692.03
2018-08-31T06:31:24.526Z,100697.40
2018-08-31T06:33:58.222Z,100698.73
2018-08-31T06:36:33.404Z,100697.77
2018-08-31T06:39:08.765Z,100701.89
2018-08-31T06:41:41.328Z,100706.70
2018-08-31T06:44:13.989Z,100703.51
2018-08-31T06:46:48.913Z,100700.77
2018-08-31T06:49:21.563Z,100698.88
2018-08-31T06:51:54.773Z,100701.79
2018-08-31T06:54:28.601Z,100702.03
2018-08-31T06:57:01.095Z,100705.01
2018-08-31T06:59:34.654Z,100705.98
2018-08-31T07:02:09.010Z,100706.17
2018-08-31T07:04:42.537Z,100703.34
2018-08-31T07:07:15.134Z,100696.05
2018-08-31T07:09:48.877Z,100696.83
2018-08-31T07:12:21.639Z,100695.43
2018-08-31T07:14:53.927Z,100699.58
2018-08-31T07:17:26.925Z,100704.73
2018-08-31T07:19:59.680Z,100703.08
2018-08-31T07:22:32.273Z,100706.20
2018-08-31T07:25:05.196Z,100706.92
2018-08-31T07:27:37.877Z,100704.98
2018-08-31T07:30:10.276Z,100710.29
2018-08-31T07:32:45.878Z,100710.61
2018-08-31T07:35:19.657Z,100717.98
2018-08-31T07:37:52.195Z,100716.99
2018-08-31T07:40:26.265Z,100718.52
2018-08-31T07:42:59.224Z,100721.36
2018-08-31T07:45:31.779Z,100717.75
2018-08-31T07:48:04.401Z,100721.87
2018-08-31T07:50:38.232Z,100719.88
2018-08-31T07:53:14.845Z,100718.03
2018-08-31T07:55:55.497Z,100717.42
2018-08-31T07:58:29.070Z,100718.68
2018-08-31T08:01:05.785Z,100723.13
2018-08-31T08:03:40.036Z,100726.22
2018-08-31T08:06:13.484Z,100726.13
2018-08-31T08:08:47.053Z,100728.24
2018-08-31T08:11:21.545Z,100729.55
2018-08-31T08:13:55.021Z,100725.37
2018-08-31T08:16:33.677Z,100727.19
2018-08-31T08:19:09.247Z,100727.51
2018-08-31T08:21:43.488Z,100726.36
2018-08-31T08:24:17.415Z,100723.73
2018-08-31T08:26:50.577Z,100729.83
2018-08-31T08:29:24.324Z,100730.30
2018-08-31T08:31:59.664Z,100734.09
2018-08-31T08:34:33.188Z,100731.68
2018-08-31T08:37:05.865Z,100732.89
2018-08-31T08:39:43.296Z,100729.39
2018-08-31T08:42:17.195Z,100730.59
2018-08-31T08:44:50.888Z,100731.67
2018-08-31T08:47:25.504Z,100723.39
2018-08-31T08:49:58.704Z,100729.30
2018-08-31T08:52:31.240Z,100732.83
2018-08-31T08:55:05.603Z,100735.19
2018-08-31T08:57:38.093Z,100727.30
2018-08-31T09:00:10.673Z,100726.27
2018-08-31T09:02:45.892Z,100727.51
2018-08-31T09:05:18.529Z,100724.69
2018-08-31T09:07:52.060Z,100727.20
2018-08-31T09:10:29.785Z,100723.34
2018-08-31T09:13:03.899Z,100722.03
2018-08-31T09:15:37.397Z,100717.12
2018-08-31T09:18:12.448Z,100721.66
2018-08-31T09:20:45.776Z,100718.26
2018-08-31T09:23:21.247Z,100712.73
2018-08-31T09:25:56.988Z,100716.55
2018-08-31T09:28:30.906Z,100716.08
2018-08-31T09:31:13.508Z,100716.86
2018-08-31T09:33:51.758Z,100714.84
2018-08-31T09:36:24.370Z,100720.95
2018-08-31T09:38:58.562Z,100710.21
2018-08-31T09:41:32.550Z,100706.42
2018-08-31T09:44:05.989Z,100706.30
2018-08-31T09:46:39.035Z,100704.86
2018-08-31T09:49:15.320Z,100701.37
2018-08-31T09:51:48.941Z,100699.00
2018-08-31T09:54:27.784Z,100691.41
2018-08-31T09:57:03.455Z,100692.20
2018-08-31T09:59:36.680Z,100693.64
2018-08-31T10:02:17.925Z,100686.36
2018-08-31T10:04:52.397Z,100686.70
2018-08-31T10:07:25.212Z,100686.65
2018-08-31T10:10:02.119Z,100688.64
2018-08-31T10:12:37.375Z,100686.58
2018-08-31T10:15:12.062Z,100687.53
2018-08-31T10:17:49.167Z,100685.44
2018-08-31T10:20:22.877Z,100684.48
2018-08-31T10:22:55.461Z,100682.17
2018-08-31T10:25:28.275Z,100682.67
2018-08-31T10:28:00.874Z,100683.03
2018-08-31T10:30:34.607Z,100687.07
2018-08-31T10:33:15.710Z,100683.25
2018-08-31T10:35:53.033Z,100688.82
2018-08-31T10:38:26.483Z,100682.14
2018-08-31T10:41:00.209Z,100684.40
2018-08-31T10:43:34.658Z,100682.86
2018-08-31T10:46:08.180Z,100679.91
2018-08-31T10:48:41.922Z,100678.95
2018-08-31T10:51:15.262Z,100667.42
2018-08-31T10:53:47.909Z,100665.95
2018-08-31T10:56:21.650Z,100667.03
2018-08-31T10:58:55.744Z,100665.83
2018-08-31T11:01:28.339Z,100667.19
2018-08-31T11:04:02.627Z,100672.76
2018-08-31T11:06:38.148Z,100676.42
2018-08-31T11:09:10.713Z,100673.69
2018-08-31T11:11:45.813Z,100675.13
2018-08-31T11:14:19.304Z,100670.95
2018-08-31T11:16:56.644Z,100676.70
2018-08-31T11:19:30.711Z,100678.97
2018-08-31T11:22:09.190Z,100678.17
2018-08-31T11:24:48.035Z,100676.64
2018-08-31T11:27:21.572Z,100675.93
2018-08-31T11:29:55.408Z,100675.23
2018-08-31T11:32:29.830Z,100676.09
2018-08-31T11:35:04.181Z,100675.23
2018-08-31T11:37:37.480Z,100674.80
2018-08-31T11:40:14.952Z,100673.77
2018-08-31T11:42:48.180Z,100670.30
2018-08-31T11:45:22.135Z,100663.72
2018-08-31T11:48:02.112Z,100666.37
2018-08-31T11:50:35.827Z,100665.00
2018-08-31T11:53:09.236Z,100663.94
2018-08-31T11:55:42.324Z,100662.53
2018-08-31T11:58:15.479Z,100669.41
2018-08-31T12:00:50.101Z,100674.68
2018-08-31T12:03:24.315Z,100668.16
2018-08-31T12:05:58.354Z,100666.86
2018-08-31T12:08:37.695Z,100666.66
2018-08-31T12:11:15.153Z,100670.45
2018-08-31T12:13:50.756Z,100670.86
2018-08-31T12:16:25.770Z,100666.34
2018-08-31T12:19:02.141Z,100665.09
2018-08-31T12:21:36.228Z,100658.09
2018-08-31T12:24:10.823Z,100655.00
2018-08-31T12:26:44.884Z,100659.66
2018-08-31T12:29:18.570Z,100662.79
2018-08-31T12:31:53.160Z,100663.75
2018-08-31T12:34:26.452Z,100664.73
2018-08-31T12:37:02.821Z,100661.02
2018-08-31T12:39:38.564Z,100666.62
2018-08-31T12:42:13.021Z,100668.62
2018-08-31T12:44:51.065Z,100662.16
2018-08-31T12:47:26.584Z,100670.53
2018-08-31T12:50:02.136Z,100667.22
2018-08-31T12:52:38.081Z,100665.14
2018-08-31T12:55:12.024Z,100665.36
2018-08-31T12:57:47.419Z,100667.25
2018-08-31T13:00:22.789Z,100667.73
2018-08-31T13:02:58.583Z,100663.20
2018-08-31T13:05:33.384Z,100658.95
2018-08-31T13:08:06.874Z,100661.87
2018-08-31T13:10:41.938Z,100655.52
2018-08-31T13:13:18.838Z,100659.49
2018-08-31T13:15:54.202Z,100656.50
2018-08-31T13:18:27.123Z,100650.14
2018-08-31T13:21:00.713Z,100643.47
2018-08-31T13:23:42.907Z,100641.14
2018-08-31T13:26:16.481Z,100640.55
2018-08-31T13:31:30.678Z,100628.13
2018-08-31T13:34:03.893Z,100633.60
2018-08-31T13:36:37.814Z,100626.09
2018-08-31T13:39:14.894Z,100625.83
2018-08-31T13:41:48.745Z,100626.31
2018-08-31T13:44:24.469Z,100626.61
2018-08-31T13:47:01.413Z,100631.63
2018-08-31T13:49:37.356Z,100626.89
2018-08-31T13:52:11.164Z,100626.80
2018-08-31T13:54:47.217Z,100629.02
2018-08-31T13:57:23.036Z,100630.27
2018-08-31T13:59:55.734Z,100631.86
2018-08-31T14:02:29.576Z,100634.48
2018-08-31T14:05:08.383Z,100633.43
2018-08-31T14:07:45.216Z,100634.16
2018-08-31T14:10:19.455Z,100636.44
2018-08-31T14:12:55.492Z,100639.62
2018-08-31T14:15:28.511Z,100636.83
2018-08-31T14:18:01.360Z,100635.27
2018-08-31T14:20:33.852Z,100632.44
2018-08-31T14:23:06.727Z,100637.59
2018-08-31T14:25:40.304Z,100638.59
2018-08-31T14:28:12.929Z,100637.80
2018-08-31T14:30:47.273Z,100634.77
2018-08-31T14:33:20.217Z,100634.23
2018-08-31T14:35:53.609Z,100636.83
2018-08-31T14:38:26.328Z,100640.16
2018-08-31T14:40:59.942Z,100639.23
2018-08-31T14:43:32.878Z,100637.77
2018-08-31T14:46:09.855Z,100632.84
2018-08-31T14:48:56.855Z,100635.26
2018-08-31T14:51:38.693Z,100632.00
2018-08-31T14:54:13.318Z,100628.11
2018-08-31T14:56:46.915Z,100628.13
2018-08-31T14:59:19.861Z,100631.18
2018-08-31T15:01:52.363Z,100631.24
2018-08-31T15:04:28.651Z,100633.98
2018-08-31T15:07:03.401Z,100633.47
2018-08-31T15:09:36.596Z,100638.10
2018-08-31T15:12:11.066Z,100639.02
2018-08-31T15:14:48.257Z,100636.48
2018-08-31T15:17:29.889Z,100637.61
2018-08-31T15:20:05.130Z,100634.64
2018-08-31T15:22:47.585Z,100634.41
2018-08-31T15:25:23.477Z,100638.05
2018-08-31T15:27:59.227Z,100632.38
2018-08-31T15:30:32.762Z,100633.94
2018-08-31T15:33:06.716Z,100634.75
2018-08-31T15:35:42.077Z,100634.11
2018-08-31T15:38:18.893Z,100633.16
2018-08-31T15:40:54.297Z,100631.81
2018-08-31T15:43:29.804Z,100632.03
2018-08-31T15:46:03.261Z,100629.91
2018-08-31T15:48:37.633Z,100629.84
2018-08-31T15:51:13.647Z,100630.72
2018-08-31T15:53:48.592Z,100631.16
2018-08-31T15:56:25.082Z,100630.23
2018-08-31T15:59:00.498Z,100628.93
2018-08-31T16:01:35.820Z,100633.91
2018-08-31T16:04:13.394Z,100628.86
2018-08-31T16:06:45.862Z,100628.58
2018-08-31T16:09:19.730Z,100632.99
2018-08-31T16:11:54.843Z,100639.05
2018-08-31T16:14:29.945Z,100638.92
2018-08-31T16:17:04.252Z,100637.24
2018-08-31T16:19:45.584Z,100641.45
2018-08-31T16:22:18.341Z,100639.50
2018-08-31T16:24:54.001Z,100632.73
2018-08-31T16:27:31.174Z,100632.06
2018-08-31T16:30:19.295Z,100629.83
2018-08-31T16:32:53.064Z,100625.96
2018-08-31T16:35:26.979Z,100631.05
2018-08-31T16:38:04.323Z,100621.86
2018-08-31T16:40:40.700Z,100627.46
2018-08-31T16:43:22.213Z,100627.19
2018-08-31T16:45:57.378Z,100623.98
2018-08-31T16:48:31.636Z,100630.03
2018-08-31T16:51:05.061Z,100629.83
2018-08-31T16:53:39.930Z,100628.45
2018-08-31T16:56:12.659Z,100626.73
2018-08-31T16:58:46.312Z,100631.02
2018-08-31T17:01:21.261Z,100633.33
2018-08-31T17:03:56.820Z,100633.36
2018-08-31T17:06:30.684Z,100637.82
2018-08-31T17:09:08.364Z,100638.56
2018-08-31T17:11:42.351Z,100640.13
2018-08-31T17:14:15.846Z,100644.83
2018-08-31T17:16:51.206Z,100649.65
2018-08-31T17:19:24.665Z,100648.78
2018-08-31T17:22:02.270Z,100645.58
2018-08-31T17:24:34.873Z,100647.67
2018-08-31T17:27:13.841Z,100647.05
2018-08-31T17:29:48.656Z,100645.16
2018-08-31T17:32:28.086Z,100650.03
2018-08-31T17:35:07.549Z,100652.53
2018-08-31T17:37:41.777Z,100647.95
2018-08-31T17:40:19.758Z,100655.30
2018-08-31T17:43:00.080Z,100653.49
2018-08-31T17:45:39.293Z,100657.84
2018-08-31T17:48:16.617Z,100660.37
2018-08-31T17:50:50.657Z,100665.55
2018-08-31T17:53:26.073Z,100665.26
2018-08-31T17:56:00.552Z,100667.61
2018-08-31T17:58:34.793Z,100671.09
2018-08-31T18:01:15.702Z,100677.29
2018-08-31T18:03:49.359Z,100682.39
2018-08-31T18:06:27.290Z,100679.17
2018-08-31T18:09:03.576Z,100681.98
2018-08-31T18:11:39.800Z,100684.73
2018-08-31T18:14:15.843Z,100693.03
2018-08-31T18:16:48.517Z,100694.95
2018-08-31T18:19:31.840Z,100695.37
2018-08-31T18:22:06.343Z,100698.25
2018-08-31T18:24:40.815Z,100703.41
2018-08-31T18:27:14.286Z,100704.60
2018-08-31T18:29:48.066Z,100699.25
2018-08-31T18:32:23.681Z,100700.05
2018-08-31T18:34:57.948Z,100701.45
2018-08-31T18:37:31.421Z,100708.28
2018-08-31T18:40:07.311Z,100717.09
2018-08-31T18:42:43.065Z,100714.16
2018-08-31T18:45:16.499Z,100717.16
2018-08-31T18:47:50.069Z,100719.13
2018-08-31T18:50:25.002Z,100730.00
2018-08-31T18:52:59.760Z,100731.02
2018-08-31T18:55:35.581Z,100734.64
2018-08-31T18:58:11.542Z,100737.62
2018-08-31T19:00:46.732Z,100742.13
2018-08-31T19:03:20.610Z,100741.00
2018-08-31T19:05:53.349Z,100744.14
2018-08-31T19:08:25.781Z,100749.97
2018-08-31T19:11:01.845Z,100749.91
2018-08-31T19:13:42.897Z,100755.86
2018-08-31T19:16:16.420Z,100761.91
2018-08-31T19:18:50.600Z,100764.96
2018-08-31T19:21:25.584Z,100765.22
2018-08-31T19:23:59.004Z,100765.99
2018-08-31T19:26:32.851Z,100777.59
2018-08-31T19:29:05.685Z,100779.17
2018-08-31T19:31:42.852Z,100779.34
2018-08-31T19:34:15.612Z,100783.41
2018-08-31T19:36:48.494Z,100781.81
2018-08-31T19:39:22.764Z,100783.81
2018-08-31T19:41:58.796Z,100786.59
2018-08-31T19:44:36.082Z,100785.46
2018-08-31T19:47:11.575Z,100791.97
2018-08-31T19:49:45.824Z,100788.59
2018-08-31T19:52:20.988Z,100791.55
2018-08-31T19:55:01.965Z,100793.80
2018-08-31T19:57:38.010Z,100796.80
2018-08-31T20:00:30.070Z,100798.70
2018-08-31T20:03:16.400Z,100801.64
2018-08-31T20:05:54.391Z,100796.46
2018-08-31T20:08:32.100Z,100798.00
2018-08-31T20:11:05.536Z,100796.08
2018-08-31T20:13:41.728Z,100796.81
2018-08-31T20:16:16.484Z,100802.50
2018-08-31T20:18:52.364Z,100805.78
2018-08-31T20:21:25.760Z,100807.13
2018-08-31T20:23:58.433Z,100817.22
2018-08-31T20:26:32.287Z,100811.19
2018-08-31T20:29:05.706Z,100811.47
2018-08-31T20:31:41.118Z,100818.09
2018-08-31T20:34:14.416Z,100819.84
2018-08-31T20:36:47.285Z,100820.77
2018-08-31T20:39:20.836Z,100820.00
2018-08-31T20:41:55.681Z,100819.53
2018-08-31T20:44:31.855Z,100822.79
2018-08-31T20:47:04.817Z,100821.61
2018-08-31T20:49:43.758Z,100823.75
2018-08-31T20:52:17.224Z,100827.55
2018-08-31T20:54:51.625Z,100827.98
2018-08-31T20:57:26.048Z,100832.38
2018-08-31T21:00:04.334Z,100830.27
2018-08-31T21:02:38.541Z,100838.63
2018-08-31T21:05:12.565Z,100838.47
2018-08-31T21:07:46.697Z,100839.11
2018-08-31T21:10:23.377Z,100832.01
2018-08-31T21:12:56.225Z,100842.47
2018-08-31T21:15:30.169Z,100843.06
2018-08-31T21:18:05.200Z,100844.22
2018-08-31T21:20:39.180Z,100841.78
2018-08-31T21:23:12.409Z,100843.31
2018-08-31T21:25:44.807Z,100847.77
2018-08-31T21:28:22.548Z,100847.70
2018-08-31T21:30:57.708Z,100853.05
2018-08-31T21:33:32.820Z,100853.77
2018-08-31T21:36:08.282Z,100859.06
2018-08-31T21:38:44.653Z,100855.89
2018-08-31T21:41:19.025Z,100851.60
2018-08-31T21:43:51.713Z,100856.83
2018-08-31T21:46:25.512Z,100856.97
2018-08-31T21:48:58.301Z,100857.49
2018-08-31T21:51:32.333Z,100861.20
2018-08-31T21:54:05.825Z,100858.29
2018-08-31T21:56:38.458Z,100861.31
2018-08-31T21:59:13.496Z,100862.08
2018-08-31T22:01:53.036Z,100859.61
2018-08-31T22:04:26.051Z,100865.67
2018-08-31T22:06:59.709Z,100860.61
2018-08-31T22:09:33.889Z,100859.14
2018-08-31T22:12:08.433Z,100860.84
2018-08-31T22:14:41.427Z,100855.88
2018-08-31T22:17:18.467Z,100860.69
2018-08-31T22:19:54.414Z,100861.39
2018-08-31T22:22:27.163Z,100859.27
2018-08-31T22:25:04.311Z,100861.53
2018-08-31T22:27:36.865Z,100865.65
2018-08-31T22:30:10.673Z,100864.50
2018-08-31T22:32:47.905Z,100862.80
2018-08-31T22:35:21.544Z,100867.47
2018-08-31T22:37:54.066Z,100867.19
2018-08-31T22:40:31.239Z,100864.86
2018-08-31T22:43:06.697Z,100862.30
2018-08-31T22:45:44.036Z,100863.25
2018-08-31T22:48:18.089Z,100869.59
2018-08-31T22:50:51.194Z,100865.03
2018-08-31T22:53:23.899Z,100863.42
2018-08-31T22:56:00.669Z,100860.33
2018-08-31T22:58:33.972Z,100858.67
2018-08-31T23:01:07.917Z,100856.02
2018-08-31T23:03:41.192Z,100857.77
2018-08-31T23:06:13.940Z,100862.36
2018-08-31T23:08:49.503Z,100858.89
2018-08-31T23:11:23.240Z,100855.94
2018-08-31T23:13:56.122Z,100856.85
2018-08-31T23:16:30.378Z,100858.55
2018-08-31T23:19:03.449Z,100856.94
2018-08-31T23:21:37.429Z,100862.36
2018-08-31T23:24:11.551Z,100865.36
2018-08-31T23:26:44.185Z,100858.06
2018-08-31T23:29:17.316Z,100861.25
2018-08-31T23:31:50.020Z,100865.88
2018-08-31T23:34:22.536Z,100860.27
2018-08-31T23:36:57.415Z,100865.09
2018-08-31T23:39:30.012Z,100866.39
2018-08-31T23:42:04.232Z,100858.91
2018-08-31T23:44:38.309Z,100868.95
2018-08-31T23:47:11.259Z,100866.05
2018-08-31T23:49:46.690Z,100867.72
2018-08-31T23:52:22.913Z,100861.19
2018-08-31T23:55:05.478Z,100860.63
2018-08-31T23:57:40.216Z,100866.47
